createdAt,value
2018-11-10T00:00:50.552Z,82.50
2018-11-10T00:03:19.064Z,82.35
2018-11-10T00:05:47.574Z,82.67
2018-11-10T00:08:16.060Z,82.62
2018-11-10T00:10:44.447Z,82.89
2018-11-10T00:13:12.853Z,82.43
2018-11-10T00:15:41.257Z,82.91
2018-11-10T00:18:09.707Z,82.01
2018-11-10T00:20:38.196Z,81.75
2018-11-10T00:23:06.730Z,81.72
2018-11-10T00:25:35.126Z,82.25
2018-11-10T00:28:03.548Z,82.08
2018-11-10T00:30:32.016Z,81.75
2018-11-10T00:33:00.515Z,82.48
2018-11-10T00:35:28.982Z,81.56
2018-11-10T00:37:57.493Z,81.42
2018-11-10T00:40:25.962Z,81.83
2018-11-10T00:42:54.466Z,81.28
2018-11-10T00:45:22.956Z,82.18
2018-11-10T00:47:51.416Z,81.11
2018-11-10T00:50:19.919Z,81.26
2018-11-10T00:52:48.425Z,81.17
2018-11-10T00:55:18.734Z,80.77
2018-11-10T00:57:49.252Z,80.93
2018-11-10T01:00:17.701Z,81.00
2018-11-10T01:02:46.219Z,80.35
2018-11-10T01:05:14.622Z,80.49
2018-11-10T01:07:43.138Z,80.56
2018-11-10T01:10:12.989Z,80.50
2018-11-10T01:12:41.635Z,80.12
2018-11-10T01:15:12.465Z,79.24
2018-11-10T01:17:41.670Z,79.39
2018-11-10T01:20:11.276Z,79.78
2018-11-10T01:22:39.829Z,79.78
2018-11-10T01:25:09.562Z,79.75
2018-11-10T01:27:38.147Z,80.48
2018-11-10T01:30:10.451Z,79.92
2018-11-10T01:32:38.892Z,80.05
2018-11-10T01:35:07.386Z,80.42
2018-11-10T01:37:36.136Z,80.82
2018-11-10T01:40:06.281Z,81.01
2018-11-10T01:42:35.725Z,80.88
2018-11-10T01:45:04.179Z,80.83
2018-11-10T01:47:32.780Z,81.19
2018-11-10T01:50:01.230Z,80.69
2018-11-10T01:52:29.693Z,80.64
2018-11-10T01:54:58.093Z,80.12
2018-11-10T01:57:26.584Z,80.78
2018-11-10T01:59:54.978Z,80.63
2018-11-10T02:02:23.385Z,80.69
2018-11-10T02:04:51.991Z,81.03
2018-11-10T02:07:20.496Z,80.47
2018-11-10T02:09:48.939Z,80.96
2018-11-10T02:12:17.356Z,80.67
2018-11-10T02:14:45.833Z,80.48
2018-11-10T02:17:14.238Z,80.67
2018-11-10T02:19:42.813Z,80.60
2018-11-10T02:22:11.292Z,80.23
2018-11-10T02:24:39.757Z,80.94
2018-11-10T02:27:13.520Z,79.59
2018-11-10T02:29:42.026Z,79.70
2018-11-10T02:32:10.531Z,79.68
2018-11-10T02:34:38.933Z,79.97
2018-11-10T02:37:07.395Z,79.31
2018-11-10T02:39:35.875Z,79.46
2018-11-10T02:42:04.313Z,79.55
2018-11-10T02:44:32.791Z,80.05
2018-11-10T02:47:01.213Z,79.94
2018-11-10T02:49:29.693Z,79.48
2018-11-10T02:51:58.164Z,79.21
2018-11-10T02:54:26.597Z,79.10
2018-11-10T02:56:55.406Z,79.61
2018-11-10T02:59:24.215Z,79.49
2018-11-10T03:01:52.694Z,78.84
2018-11-10T03:04:21.197Z,79.03
2018-11-10T03:06:49.652Z,78.66
2018-11-10T03:09:18.052Z,78.86
2018-11-10T03:11:46.481Z,78.76
2018-11-10T03:14:14.945Z,78.55
2018-11-10T03:16:43.389Z,77.85
2018-11-10T03:19:11.799Z,77.75
2018-11-10T03:21:40.222Z,77.43
2018-11-10T03:24:08.655Z,77.98
2018-11-10T03:26:37.069Z,77.68
2018-11-10T03:29:05.911Z,77.59
2018-11-10T03:31:34.331Z,77.01
2018-11-10T03:34:02.805Z,77.84
2018-11-10T03:36:31.325Z,77.24
2018-11-10T03:38:59.749Z,77.54
2018-11-10T03:41:28.136Z,77.10
2018-11-10T03:43:56.629Z,77.82
2018-11-10T03:46:26.308Z,77.31
2018-11-10T03:48:55.130Z,76.98
2018-11-10T03:51:23.472Z,76.26
2018-11-10T03:53:51.937Z,77.02
2018-11-10T03:56:20.436Z,76.60
2018-11-10T03:58:48.816Z,76.10
2018-11-10T04:01:17.282Z,75.92
2018-11-10T04:03:45.655Z,76.25
2018-11-10T04:06:14.183Z,75.61
2018-11-10T04:08:42.595Z,75.58
2018-11-10T04:11:11.030Z,75.97
2018-11-10T04:13:39.476Z,75.39
2018-11-10T04:16:07.858Z,74.84
2018-11-10T04:18:36.364Z,74.67
2018-11-10T04:21:04.823Z,74.78
2018-11-10T04:23:33.230Z,74.40
2018-11-10T04:26:01.659Z,74.35
2018-11-10T04:28:30.077Z,74.51
2018-11-10T04:30:58.471Z,73.56
2018-11-10T04:33:26.886Z,73.81
2018-11-10T04:35:55.283Z,73.96
2018-11-10T04:38:23.718Z,73.37
2018-11-10T04:40:52.208Z,74.17
2018-11-10T04:43:20.654Z,73.37
2018-11-10T04:45:49.057Z,73.48
2018-11-10T04:48:17.523Z,73.19
2018-11-10T04:50:45.932Z,73.26
2018-11-10T04:53:14.383Z,73.25
2018-11-10T04:55:42.809Z,72.65
2018-11-10T04:58:11.253Z,72.94
2018-11-10T05:00:39.681Z,73.16
2018-11-10T05:03:08.128Z,72.39
2018-11-10T05:05:36.516Z,72.56
2018-11-10T05:08:05.137Z,71.97
2018-11-10T05:10:33.581Z,72.69
2018-11-10T05:13:01.998Z,72.72
2018-11-10T05:15:30.391Z,71.94
2018-11-10T05:17:58.843Z,71.92
2018-11-10T05:20:27.294Z,72.00
2018-11-10T05:22:55.703Z,72.69
2018-11-10T05:25:24.172Z,72.84
2018-11-10T05:27:52.603Z,71.80
2018-11-10T05:30:21.102Z,73.38
2018-11-10T05:32:49.493Z,74.14
2018-11-10T05:35:17.921Z,76.08
2018-11-10T05:37:46.376Z,76.35
2018-11-10T05:40:14.763Z,77.15
2018-11-10T05:42:43.254Z,78.33
2018-11-10T05:45:11.668Z,78.83
2018-11-10T05:47:40.173Z,80.04
2018-11-10T05:50:09.298Z,80.64
2018-11-10T05:52:37.722Z,80.94
2018-11-10T05:55:07.503Z,81.62
2018-11-10T05:57:35.986Z,82.62
2018-11-10T06:00:06.151Z,82.88
2018-11-10T06:02:34.581Z,82.90
2018-11-10T06:05:03.040Z,83.48
2018-11-10T06:07:31.483Z,83.55
2018-11-10T06:09:59.965Z,83.34
2018-11-10T06:12:29.067Z,83.09
2018-11-10T06:14:57.523Z,84.10
2018-11-10T06:17:25.957Z,83.87
2018-11-10T06:19:54.386Z,84.51
2018-11-10T06:22:22.801Z,84.25
2018-11-10T06:24:51.305Z,84.24
2018-11-10T06:27:19.707Z,84.48
2018-11-10T06:29:48.116Z,85.07
2018-11-10T06:32:16.597Z,84.98
2018-11-10T06:34:45.025Z,85.86
2018-11-10T06:37:13.426Z,85.51
2018-11-10T06:39:41.873Z,85.82
2018-11-10T06:42:10.256Z,86.06
2018-11-10T06:44:38.747Z,85.79
2018-11-10T06:47:07.302Z,86.41
2018-11-10T06:49:35.687Z,86.40
2018-11-10T06:52:05.037Z,86.04
2018-11-10T06:54:33.452Z,86.39
2018-11-10T06:57:01.874Z,87.05
2018-11-10T06:59:30.291Z,87.24
2018-11-10T07:01:58.743Z,86.70
2018-11-10T07:04:27.175Z,86.76
2018-11-10T07:06:55.613Z,86.58
2018-11-10T07:09:24.096Z,86.70
2018-11-10T07:11:52.483Z,87.52
2018-11-10T07:14:20.898Z,88.03
2018-11-10T07:16:49.377Z,87.81
2018-11-10T07:19:17.803Z,88.24
2018-11-10T07:21:46.224Z,88.50
2018-11-10T07:24:14.586Z,88.96
2018-11-10T07:26:43.046Z,88.52
2018-11-10T07:29:11.530Z,88.33
2018-11-10T07:31:40.049Z,88.77
2018-11-10T07:34:08.452Z,88.60
2018-11-10T07:36:36.889Z,88.99
2018-11-10T07:39:08.077Z,88.93
2018-11-10T07:44:22.739Z,89.28
2018-11-10T07:46:51.143Z,89.12
2018-11-10T07:49:19.728Z,89.69
2018-11-10T07:51:48.740Z,90.03
2018-11-10T07:54:17.188Z,89.60
2018-11-10T07:56:45.752Z,88.56
2018-11-10T07:59:14.176Z,89.10
2018-11-10T08:01:42.605Z,88.89
2018-11-10T08:04:10.991Z,89.01
2018-11-10T08:06:39.417Z,88.22
2018-11-10T08:09:09.193Z,88.46
2018-11-10T08:11:37.704Z,87.91
2018-11-10T08:14:06.394Z,88.07
2018-11-10T08:16:35.084Z,88.84
2018-11-10T08:19:03.545Z,88.05
2018-11-10T08:21:32.067Z,88.55
2018-11-10T08:24:00.590Z,87.46
2018-11-10T08:26:29.004Z,87.54
2018-11-10T08:28:57.424Z,87.47
2018-11-10T08:31:25.925Z,87.55
2018-11-10T08:33:54.313Z,87.03
2018-11-10T08:36:22.756Z,86.94
2018-11-10T08:38:51.176Z,86.50
2018-11-10T08:41:19.554Z,87.20
2018-11-10T08:43:48.129Z,86.45
2018-11-10T08:46:16.595Z,87.30
2018-11-10T08:48:45.031Z,87.02
2018-11-10T08:51:13.501Z,86.67
2018-11-10T08:53:41.930Z,86.43
2018-11-10T08:56:10.419Z,86.74
2018-11-10T08:58:38.793Z,86.92
2018-11-10T09:01:07.315Z,86.87
2018-11-10T09:03:35.752Z,86.38
2018-11-10T09:08:31.552Z,86.30
2018-11-10T09:11:00.093Z,86.83
2018-11-10T09:13:28.533Z,86.47
2018-11-10T09:15:56.974Z,86.79
2018-11-10T09:18:25.436Z,86.94
2018-11-10T09:20:53.941Z,86.76
2018-11-10T09:23:22.395Z,86.39
2018-11-10T09:25:50.841Z,86.88
2018-11-10T09:28:19.300Z,86.51
2018-11-10T09:30:47.789Z,87.07
2018-11-10T09:33:16.236Z,86.53
2018-11-10T09:35:44.632Z,86.43
2018-11-10T09:38:13.057Z,86.16
2018-11-10T09:40:41.483Z,86.54
2018-11-10T09:43:09.900Z,86.47
2018-11-10T09:45:38.385Z,86.95
2018-11-10T09:48:06.840Z,86.49
2018-11-10T09:50:35.315Z,85.69
2018-11-10T09:53:03.742Z,85.49
2018-11-10T09:55:32.201Z,86.17
2018-11-10T09:58:00.660Z,85.59
2018-11-10T10:00:29.195Z,85.31
2018-11-10T10:02:57.677Z,85.99
2018-11-10T10:05:26.092Z,85.87
2018-11-10T10:07:54.550Z,85.75
2018-11-10T10:10:22.997Z,85.67
2018-11-10T10:12:51.465Z,86.82
2018-11-10T10:15:20.091Z,86.80
2018-11-10T10:17:48.707Z,87.53
2018-11-10T10:20:18.277Z,87.84
2018-11-10T10:22:47.640Z,87.25
2018-11-10T10:25:16.816Z,86.78
2018-11-10T10:27:46.072Z,87.57
2018-11-10T10:30:18.721Z,87.97
2018-11-10T10:32:47.999Z,88.76
2018-11-10T10:35:16.789Z,89.16
2018-11-10T10:37:46.301Z,89.21
2018-11-10T10:40:15.228Z,89.89
2018-11-10T10:42:44.553Z,89.78
2018-11-10T10:45:14.381Z,90.16
2018-11-10T10:47:43.218Z,90.75
2018-11-10T10:50:14.113Z,90.88
2018-11-10T10:52:42.621Z,91.49
2018-11-10T10:55:12.716Z,92.42
2018-11-10T10:57:41.557Z,91.83
2018-11-10T11:00:17.249Z,92.41
2018-11-10T11:02:50.950Z,92.91
2018-11-10T11:06:23.128Z,93.76
2018-11-10T11:08:51.836Z,93.40
2018-11-10T11:11:20.248Z,93.39
2018-11-10T11:13:48.754Z,94.35
2018-11-10T11:16:17.167Z,93.81
2018-11-10T11:18:45.623Z,94.31
2018-11-10T11:21:14.062Z,94.25
2018-11-10T11:23:42.536Z,95.02
2018-11-10T11:26:11.026Z,94.99
2018-11-10T11:28:39.554Z,94.62
2018-11-10T11:31:08.007Z,95.06
2018-11-10T11:33:36.477Z,95.40
2018-11-10T11:36:04.938Z,95.44
2018-11-10T11:38:33.349Z,95.41
2018-11-10T11:41:01.779Z,95.62
2018-11-10T11:43:30.168Z,95.37
2018-11-10T11:45:58.618Z,95.11
2018-11-10T11:48:27.072Z,95.04
2018-11-10T11:50:55.518Z,95.54
2018-11-10T11:53:23.984Z,96.07
2018-11-10T11:55:52.482Z,95.24
2018-11-10T11:58:21.092Z,95.92
2018-11-10T12:00:49.381Z,95.38
2018-11-10T12:03:17.893Z,95.38
2018-11-10T12:05:46.345Z,96.25
2018-11-10T12:08:14.770Z,95.97
2018-11-10T12:10:44.452Z,95.64
2018-11-10T12:13:12.910Z,95.66
2018-11-10T12:15:41.352Z,96.43
2018-11-10T12:18:09.785Z,96.51
2018-11-10T12:20:38.581Z,96.35
2018-11-10T12:23:06.988Z,96.68
2018-11-10T12:25:35.401Z,96.40
2018-11-10T12:28:04.747Z,96.57
2018-11-10T12:30:33.222Z,96.80
2018-11-10T12:33:01.661Z,96.51
2018-11-10T12:35:30.145Z,96.35
2018-11-10T12:37:58.566Z,96.59
2018-11-10T12:40:27.017Z,96.21
2018-11-10T12:42:56.300Z,96.90
2018-11-10T12:45:24.730Z,96.47
2018-11-10T12:47:53.152Z,96.56
2018-11-10T12:50:21.620Z,96.92
2018-11-10T12:52:50.085Z,97.08
2018-11-10T12:55:18.580Z,96.75
2018-11-10T12:57:47.378Z,97.33
2018-11-10T13:00:17.072Z,97.37
2018-11-10T13:02:45.925Z,97.01
2018-11-10T13:05:14.482Z,97.70
2018-11-10T13:07:44.468Z,96.82
2018-11-10T13:10:12.993Z,97.36
2018-11-10T13:12:42.075Z,97.64
2018-11-10T13:15:10.924Z,97.31
2018-11-10T13:17:39.742Z,96.71
2018-11-10T13:20:10.986Z,96.58
2018-11-10T13:22:39.402Z,97.20
2018-11-10T13:25:08.645Z,97.03
2018-11-10T13:27:37.110Z,96.42
2018-11-10T13:30:06.437Z,96.71
2018-11-10T13:32:34.887Z,96.66
2018-11-10T13:35:03.422Z,96.87
2018-11-10T13:37:31.941Z,96.74
2018-11-10T13:40:00.407Z,97.42
2018-11-10T13:42:28.955Z,96.75
2018-11-10T13:44:57.380Z,96.78
2018-11-10T13:47:25.881Z,96.83
2018-11-10T13:49:54.365Z,97.06
2018-11-10T13:52:23.150Z,97.07
2018-11-10T13:54:51.275Z,97.60
2018-11-10T13:57:19.880Z,97.07
2018-11-10T13:59:48.351Z,97.40
2018-11-10T14:02:16.867Z,97.28
2018-11-10T14:04:45.306Z,96.58
2018-11-10T14:07:13.780Z,97.28
2018-11-10T14:09:42.184Z,96.51
2018-11-10T14:12:10.613Z,97.21
2018-11-10T14:14:39.079Z,96.89
2018-11-10T14:17:07.532Z,96.91
2018-11-10T14:19:36.112Z,96.92
2018-11-10T14:22:04.597Z,97.70
2018-11-10T14:24:33.070Z,97.38
2018-11-10T14:27:02.970Z,97.12
2018-11-10T14:29:32.166Z,97.30
2018-11-10T14:32:00.626Z,96.70
2018-11-10T14:34:29.131Z,97.29
2018-11-10T14:36:58.289Z,96.81
2018-11-10T14:39:26.769Z,96.88
2018-11-10T14:41:55.285Z,97.23
2018-11-10T14:44:23.715Z,97.12
2018-11-10T14:46:52.153Z,96.90
2018-11-10T14:49:22.245Z,97.13
2018-11-10T14:51:50.727Z,97.07
2018-11-10T14:54:19.218Z,97.07
2018-11-10T14:56:48.809Z,97.43
2018-11-10T14:59:18.982Z,96.22
2018-11-10T15:01:47.471Z,97.17
2018-11-10T15:04:15.899Z,96.27
2018-11-10T15:06:44.355Z,96.87
2018-11-10T15:09:12.794Z,96.84
2018-11-10T15:11:41.244Z,96.79
2018-11-10T15:14:09.704Z,96.69
2018-11-10T15:16:39.168Z,96.63
2018-11-10T15:19:08.082Z,96.06
2018-11-10T15:21:36.501Z,95.82
2018-11-10T15:24:05.686Z,96.31
2018-11-10T15:26:34.088Z,95.83
2018-11-10T15:29:02.546Z,95.77
2018-11-10T15:31:31.015Z,96.12
2018-11-10T15:33:59.400Z,95.53
2018-11-10T15:36:27.821Z,95.55
2018-11-10T15:38:56.247Z,96.05
2018-11-10T15:41:24.664Z,95.48
2018-11-10T15:43:53.081Z,95.53
2018-11-10T15:46:21.618Z,96.09
2018-11-10T15:48:50.141Z,95.86
2018-11-10T15:51:18.563Z,95.40
2018-11-10T15:53:46.999Z,94.93
2018-11-10T15:56:15.480Z,95.03
2018-11-10T15:58:43.923Z,95.31
2018-11-10T16:01:12.398Z,95.40
2018-11-10T16:03:40.888Z,94.60
2018-11-10T16:06:09.329Z,94.68
2018-11-10T16:08:37.779Z,95.29
2018-11-10T16:11:06.263Z,95.19
2018-11-10T16:13:34.652Z,94.82
2018-11-10T16:16:03.143Z,95.05
2018-11-10T16:18:31.606Z,94.72
2018-11-10T16:21:00.205Z,94.12
2018-11-10T16:23:28.569Z,94.42
2018-11-10T16:25:57.097Z,93.75
2018-11-10T16:28:25.547Z,94.53
2018-11-10T16:30:53.997Z,94.18
2018-11-10T16:33:22.473Z,93.87
2018-11-10T16:35:50.968Z,93.80
2018-11-10T16:38:19.428Z,94.09
2018-11-10T16:40:47.878Z,94.29
2018-11-10T16:43:16.325Z,94.35
2018-11-10T16:45:44.770Z,94.98
2018-11-10T16:48:13.245Z,94.42
2018-11-10T16:50:41.629Z,94.88
2018-11-10T16:53:10.130Z,94.64
2018-11-10T16:55:38.554Z,95.43
2018-11-10T16:58:07.083Z,94.94
2018-11-10T17:00:35.587Z,94.39
2018-11-10T17:03:04.140Z,94.86
2018-11-10T17:05:32.650Z,94.40
2018-11-10T17:08:01.076Z,94.78
2018-11-10T17:10:29.571Z,94.13
2018-11-10T17:12:57.992Z,94.61
2018-11-10T17:15:26.483Z,93.95
2018-11-10T17:17:54.935Z,94.43
2018-11-10T17:20:23.362Z,93.50
2018-11-10T17:22:51.832Z,93.52
2018-11-10T17:25:20.260Z,94.38
2018-11-10T17:27:48.734Z,94.13
2018-11-10T17:30:18.872Z,94.10
2018-11-10T17:32:47.300Z,93.83
2018-11-10T17:35:16.535Z,93.27
2018-11-10T17:37:45.404Z,93.18
2018-11-10T17:40:14.763Z,93.27
2018-11-10T17:42:43.228Z,92.61
2018-11-10T17:45:13.086Z,92.54
2018-11-10T17:47:42.172Z,93.06
2018-11-10T17:50:11.933Z,92.50
2018-11-10T17:52:40.544Z,92.47
2018-11-10T17:55:10.355Z,92.78
2018-11-10T17:57:38.872Z,93.02
2018-11-10T18:00:07.381Z,92.10
2018-11-10T18:02:35.820Z,91.84
2018-11-10T18:05:04.433Z,92.17
2018-11-10T18:07:32.869Z,92.95
2018-11-10T18:10:01.305Z,92.97
2018-11-10T18:12:29.772Z,92.42
2018-11-10T18:14:58.233Z,93.17
2018-11-10T18:17:26.909Z,92.69
2018-11-10T18:19:55.345Z,93.40
2018-11-10T18:22:23.791Z,93.12
2018-11-10T18:24:52.231Z,92.70
2018-11-10T18:27:20.666Z,92.98
2018-11-10T18:29:49.168Z,92.40
2018-11-10T18:32:17.688Z,93.73
2018-11-10T18:34:46.089Z,93.53
2018-11-10T18:37:14.564Z,94.46
2018-11-10T18:39:43.018Z,94.69
2018-11-10T18:42:11.539Z,94.86
2018-11-10T18:44:40.003Z,94.21
2018-11-10T18:47:08.579Z,94.15
2018-11-10T18:49:37.002Z,94.78
2018-11-10T18:52:05.643Z,95.59
2018-11-10T18:54:34.040Z,95.76
2018-11-10T18:57:02.726Z,96.17
2018-11-10T18:59:32.064Z,96.26
2018-11-10T19:02:02.993Z,96.45
2018-11-10T19:04:31.555Z,95.83
2018-11-10T19:06:59.991Z,96.37
2018-11-10T19:09:33.111Z,96.81
2018-11-10T19:12:01.492Z,96.00
2018-11-10T19:14:29.934Z,96.05
2018-11-10T19:16:58.398Z,96.73
2018-11-10T19:19:26.830Z,97.17
2018-11-10T19:21:55.295Z,96.54
2018-11-10T19:24:23.674Z,96.74
2018-11-10T19:26:52.115Z,96.87
2018-11-10T19:29:20.596Z,96.69
2018-11-10T19:31:49.100Z,97.74
2018-11-10T19:34:17.507Z,96.96
2018-11-10T19:36:45.990Z,97.62
2018-11-10T19:39:14.409Z,97.56
2018-11-10T19:41:42.905Z,97.77
2018-11-10T19:44:11.379Z,97.70
2018-11-10T19:46:40.717Z,97.40
2018-11-10T19:49:09.545Z,97.85
2018-11-10T19:51:38.323Z,97.26
2018-11-10T19:54:06.514Z,98.00
2018-11-10T19:56:34.995Z,98.02
2018-11-10T19:59:03.423Z,97.76
2018-11-10T20:01:31.876Z,97.94
2018-11-10T20:04:00.368Z,97.69
2018-11-10T20:06:28.883Z,98.29
2018-11-10T20:08:57.384Z,97.80
2018-11-10T20:11:25.822Z,97.74
2018-11-10T20:13:54.277Z,98.43
2018-11-10T20:16:22.670Z,98.24
2018-11-10T20:18:51.101Z,98.66
2018-11-10T20:21:19.573Z,98.08
2018-11-10T20:23:48.115Z,98.30
2018-11-10T20:26:16.584Z,98.94
2018-11-10T20:28:45.045Z,98.96
2018-11-10T20:31:13.801Z,98.62
2018-11-10T20:33:42.219Z,98.99
2018-11-10T20:36:10.661Z,98.34
2018-11-10T20:38:39.189Z,98.41
2018-11-10T20:41:08.002Z,98.32
2018-11-10T20:43:36.486Z,98.80
2018-11-10T20:46:05.356Z,98.53
2018-11-10T20:48:33.833Z,99.28
2018-11-10T20:51:02.441Z,98.68
2018-11-10T20:53:31.102Z,99.52
2018-11-10T20:55:59.570Z,98.68
2018-11-10T20:58:28.031Z,99.65
2018-11-10T21:00:56.542Z,98.75
2018-11-10T21:03:25.012Z,98.74
2018-11-10T21:05:53.508Z,98.85
2018-11-10T21:08:22.191Z,99.53
2018-11-10T21:10:50.638Z,98.90
2018-11-10T21:13:19.285Z,99.36
2018-11-10T21:15:47.740Z,99.15
2018-11-10T21:18:16.212Z,99.36
2018-11-10T21:20:44.648Z,99.23
2018-11-10T21:23:13.055Z,99.83
2018-11-10T21:25:41.546Z,98.89
2018-11-10T21:28:10.065Z,99.81
2018-11-10T21:30:38.447Z,99.84
2018-11-10T21:33:06.922Z,99.90
2018-11-10T21:35:35.546Z,99.35
2018-11-10T21:38:03.792Z,99.22
2018-11-10T21:40:32.216Z,99.21
2018-11-10T21:43:00.730Z,99.80
2018-11-10T21:45:29.163Z,100.00
2018-11-10T21:47:57.609Z,99.80
2018-11-10T21:50:26.081Z,99.46
2018-11-10T21:52:54.528Z,99.34
2018-11-10T21:55:22.997Z,100.00
2018-11-10T21:57:51.466Z,99.83
2018-11-10T22:00:21.340Z,99.38
2018-11-10T22:02:50.200Z,99.94
2018-11-10T22:05:19.185Z,99.45
2018-11-10T22:07:47.645Z,99.93
2018-11-10T22:10:17.253Z,100.00
2018-11-10T22:12:46.061Z,99.85
2018-11-10T22:15:16.008Z,99.79
2018-11-10T22:17:45.203Z,99.96
2018-11-10T22:20:14.876Z,99.18
2018-11-10T22:22:43.377Z,99.77
2018-11-10T22:25:12.437Z,99.18
2018-11-10T22:27:43.100Z,99.53
2018-11-10T22:30:13.843Z,98.96
2018-11-10T22:32:42.876Z,99.71
2018-11-10T22:35:11.518Z,99.50
2018-11-10T22:37:40.101Z,99.52
2018-11-10T22:40:10.816Z,99.83
2018-11-10T22:42:39.813Z,99.80
2018-11-10T22:45:09.810Z,99.63
2018-11-10T22:47:38.962Z,98.96
2018-11-10T22:50:09.566Z,99.55
2018-11-10T22:52:38.108Z,98.84
2018-11-10T22:55:07.096Z,99.07
2018-11-10T22:57:36.264Z,98.72
2018-11-10T23:00:07.480Z,99.05
2018-11-10T23:02:36.044Z,99.54
2018-11-10T23:05:05.665Z,99.12
2018-11-10T23:07:34.066Z,98.37
2018-11-10T23:10:02.505Z,99.10
2018-11-10T23:12:30.931Z,98.92
2018-11-10T23:14:59.365Z,98.93
2018-11-10T23:17:27.825Z,98.94
2018-11-10T23:19:56.305Z,98.24
2018-11-10T23:22:24.713Z,98.96
2018-11-10T23:24:53.212Z,99.09
2018-11-10T23:27:21.617Z,98.64
2018-11-10T23:29:50.131Z,98.46
2018-11-10T23:32:18.668Z,98.35
2018-11-10T23:34:47.058Z,97.65
2018-11-10T23:37:16.140Z,97.57
2018-11-10T23:39:44.634Z,97.39
2018-11-10T23:42:13.060Z,97.26
2018-11-10T23:44:41.449Z,97.45
2018-11-10T23:47:09.932Z,96.93
2018-11-10T23:49:38.524Z,97.73
2018-11-10T23:52:06.982Z,96.97
2018-11-10T23:54:35.483Z,96.62
2018-11-10T23:57:03.878Z,96.95
2018-11-10T23:59:32.653Z,97.36
